METAR Data
IDs: Format: Raw Decoded Include TAF

Data at: 2138 UTC 08 Aug 2020

KFIT 082052Z AUTO 27005KT 10SM SCT060 30/15 A3011 RMK AO2 SLP192 T03000150 58015
KFIT 081952Z AUTO 24003KT 10SM FEW100 28/13 A3012 RMK AO2 SLP199 T02830133
KFIT 081852Z AUTO 10SM CLR 30/13 A3014 RMK AO2 SLP204 T03000128
KFIT 081752Z AUTO 01004KT 10SM CLR 29/13 A3015 RMK AO2 SLP209 T02890128 10289 20211 58015
KFIT 081652Z AUTO 00000KT 10SM SCT070 27/13 A3017 RMK AO2 SLP216 T02670133
KFIT 081552Z AUTO VRB05KT 10SM CLR 25/14 A3018 RMK AO2 SLP219 T02500139
KFIT 081452Z AUTO 00000KT 10SM CLR 23/15 A3020 RMK AO2 SLP224 T02280150 50000
KFIT 081352Z AUTO 03003KT 10SM FEW080 BKN110 23/14 A3020 RMK AO2 SLP227 T02280144
KFIT 081252Z AUTO 01003KT 10SM OVC070 22/15 A3021 RMK AO2 SLP228 T02170150
KFIT 081152Z AUTO 00000KT 10SM FEW065 21/14 A3020 RMK AO2 SLP224 T02110144 10211 20178 53007
KFIT 081052Z AUTO 00000KT 10SM OVC110 19/15 A3019 RMK AO2 SLP222 T01890150
KFIT 080952Z AUTO 00000KT 10SM BKN100 18/15 A3018 RMK AO2 SLP218 T01780150
KFIT 080852Z AUTO 00000KT 10SM SCT100 18/15 A3017 RMK AO2 SLP217 T01830150 55002
KFIT 080752Z AUTO 00000KT 10SM CLR 18/15 A3017 RMK AO2 SLP216 T01830150
KFIT 080652Z AUTO 00000KT 10SM OVC090 18/15 A3018 RMK AO2 SLP219 T01830150
KFIT 080552Z AUTO 00000KT 10SM CLR 18/15 A3018 RMK AO2 SLP219 T01830150 10233 20178 50004
KFIT 080452Z AUTO 00000KT 10SM FEW075 SCT090 19/14 A3018 RMK AO2 SLP220 T01890144 402780156
KFIT 080352Z AUTO 29003KT 10SM FEW090 19/15 A3017 RMK AO2 SLP217 T01890150
KFIT 080252Z AUTO 00000KT 10SM CLR 20/15 A3017 RMK AO2 SLP215 T02000150 50003
KFIT 080152Z AUTO 00000KT 10SM SCT075 22/14 A3018 RMK AO2 SLP218 T02170144
KFIT 080052Z AUTO 00000KT 10SM BKN070 22/14 A3018 RMK AO2 SLP218 T02220139
KFIT 072352Z AUTO 12003KT 10SM FEW070 SCT120 24/13 A3016 RMK AO2 SLP211 T02390133 10278 20239 53001
KFIT 072252Z AUTO 12004KT 10SM FEW120 25/13 A3015 RMK AO2 SLP209 T02500133
KFIT 072152Z AUTO 10006KT 10SM FEW120 27/14 A3015 RMK AO2 SLP207 T02670144
KFIT 072052Z AUTO VRB06KT 10SM FEW075 28/14 A3016 RMK AO2 SLP210 T02780139 58009
KFIT 071952Z AUTO 10006KT 10SM FEW070 27/13 A3017 RMK AO2 SLP215 T02670128
KFIT 071852Z AUTO 12006KT 10SM SCT075 26/13 A3018 RMK AO2 SLP218 T02610128
KFIT 071752Z AUTO 11006KT 10SM FEW120 26/13 A3018 RMK AO2 SLP220 60000 T02560133 10256 20189 56013
KFIT 071652Z AUTO 12006KT 10SM OVC110 24/12 A3019 RMK AO2 SLP222 T02390122
KFIT 071552Z AUTO 00000KT 10SM CLR 23/14 A3020 RMK AO2 SLP226 T02330139
KFIT 071452Z AUTO 00000KT 10SM FEW047 SCT075 BKN110 22/13 A3022 RMK AO2 SLP233 60000 T02170133 51007
KFIT 071352Z AUTO 00000KT 10SM BKN080 21/13 A3022 RMK AO2 RAE05 SLP231 P0000 T02110133
KFIT 071252Z AUTO 00000KT 10SM -RA SCT070 BKN100 20/13 A3021 RMK AO2 RAB25 SLP230 P0000 T02000133
KFIT 071152Z AUTO 00000KT 10SM FEW120 19/14 A3020 RMK AO2 SLP225 T01890139 10189 20156 53012
KFIT 071052Z AUTO 36003KT 10SM CLR 17/13 A3018 RMK AO2 SLP219 T01720133
KFIT 070952Z AUTO 00000KT 10SM CLR 17/13 A3017 RMK AO2 SLP217 T01670128